Time;durP1;ratioP1;P1;durP2;ratioP2;P2;SDS_P1;SDS_P2;PMS_P1;PMS_P2;Temp;Humidity;BMP_temperature;BMP_pressure;BME280_temperature;BME280_humidity;BME280_pressure;Samples;Min_cycle;Max_cycle;Signal;HPM_P1;HPM_P2
2021/12/17 00:03:07;;;;;;;;;;;1.00;87.60;;;;;;5083677;27;90386;-45
2021/12/17 00:05:08;;;;;;;;;;;1.00;87.60;;;;;;5087320;27;86824;-45
2021/12/17 00:07:35;;;;;;;;;;;1.00;87.70;;;;;;5084029;27;88587;-45
2021/12/17 00:10:02;;;;;;;;;;;1.00;87.70;;;;;;5084589;27;87185;-43
2021/12/17 00:12:28;;;;;;;;;;;1.00;87.70;;;;;;5084509;27;88925;-43
2021/12/17 00:14:54;;;;;;;;;;;1.00;87.60;;;;;;5084228;27;89321;-43
2021/12/17 00:17:25;;;;;;;;;;;1.00;87.80;;;;;;5084395;27;87241;-45
2021/12/17 00:50:02;;;;;;;;;;;1.00;87.70;;;;;;5081900;27;87139;-44
2021/12/17 00:52:31;;;;;;;;;;;1.00;87.90;;;;;;5086769;27;89830;-46
2021/12/17 00:54:56;;;;;;;;;;;1.00;87.60;;;;;;5083288;27;89004;-43
2021/12/17 00:57:26;;;;;;;;;;;1.00;87.70;;;;;;5083758;27;89643;-45
2021/12/17 00:59:53;;;;;;;;;;;1.00;87.80;;;;;;5083280;27;87023;-45
2021/12/17 01:02:24;;;;;;;;;;;1.00;87.80;;;;;;5084141;27;88782;-44
2021/12/17 01:04:51;;;;;;;;;;;1.00;87.70;;;;;;5083615;27;89971;-42
2021/12/17 01:07:18;;;;;;;;;;;1.00;87.80;;;;;;5087266;27;87082;-44
2021/12/17 01:09:45;;;;;;;;;;;1.00;87.50;;;;;;5087306;27;89478;-43
2021/12/17 01:12:11;;;;;;;;;;;1.00;87.40;;;;;;5087354;27;88710;-43
2021/12/17 01:14:37;;;;;;;;;;;1.00;87.80;;;;;;5090111;27;86845;-46
2021/12/17 01:17:03;;;;;;;;;;;1.00;87.50;;;;;;5087192;27;90098;-43
2021/12/17 01:22:15;;;;;;;;;;;1.00;87.50;;;;;;5087440;27;87317;-44
2021/12/17 01:24:50;;;;;;;;;;;1.00;87.60;;;;;;5086727;27;89723;-43
2021/12/17 01:35:30;;;;;;;;;;;1.00;87.80;;;;;;5090261;27;86883;-44
2021/12/17 01:43:03;;;;;;;;;;;1.10;87.60;;;;;;5086001;27;86847;-43
2021/12/17 01:45:33;;;;;;;;;;;1.00;87.70;;;;;;5085816;27;90160;-46
2021/12/17 01:48:02;;;;;;;;;;;1.00;87.60;;;;;;5086786;27;87032;-45
2021/12/17 02:01:12;;;;;;;;;;;1.00;87.70;;;;;;5086997;27;86851;-43
2021/12/17 02:03:38;;;;;;;;;;;1.00;87.50;;;;;;5086943;27;88767;-46
2021/12/17 02:06:05;;;;;;;;;;;1.00;87.60;;;;;;5086204;27;89273;-46
2021/12/17 02:08:31;;;;;;;;;;;1.00;87.50;;;;;;5086558;27;87010;-45
2021/12/17 02:22:10;;;;;;;;;;;1.00;87.80;;;;;;5089267;27;87278;-43
2021/12/17 02:32:31;;;;;;;;;;;1.00;87.70;;;;;;5086147;27;86842;-43
2021/12/17 02:35:43;;;;;;;;;;;1.00;87.50;;;;;;5085801;27;89423;-43
2021/12/17 02:37:45;;;;;;;;;;;1.10;87.60;;;;;;5070317;27;87954;-44
2021/12/17 02:48:22;;;;;;;;;;;1.00;87.30;;;;;;5022109;28;88661;-43
2021/12/17 02:53:33;;;;;;;;;;;1.00;87.50;;;;;;5084003;27;87094;-43
2021/12/17 02:56:00;;;;;;;;;;;1.00;87.70;;;;;;5085895;27;88056;-43
2021/12/17 02:58:28;;;;;;;;;;;1.00;87.50;;;;;;5085512;27;88876;-44
2021/12/17 03:00:54;;;;;;;;;;;1.00;87.60;;;;;;5085745;27;88348;-43
2021/12/17 03:03:22;;;;;;;;;;;1.10;87.70;;;;;;5084357;27;89679;-44
2021/12/17 03:05:48;;;;;;;;;;;1.00;87.70;;;;;;5085598;27;87054;-44
2021/12/17 03:08:15;;;;;;;;;;;1.10;87.70;;;;;;5088005;27;89167;-43
2021/12/17 03:10:42;;;;;;;;;;;1.10;87.50;;;;;;5085485;27;87126;-44
2021/12/17 03:13:09;;;;;;;;;;;1.10;88.10;;;;;;5085356;27;89044;-46
2021/12/17 03:15:41;;;;;;;;;;;1.10;87.90;;;;;;5085321;27;87977;-44
2021/12/17 03:25:52;;;;;;;;;;;1.00;87.70;;;;;;5084790;27;86993;-43
2021/12/17 03:28:18;;;;;;;;;;;1.00;87.90;;;;;;5084146;27;88566;-43
2021/12/17 03:30:43;;;;;;;;;;;1.00;87.90;;;;;;5087643;27;89536;-44
2021/12/17 03:33:09;;;;;;;;;;;1.00;87.90;;;;;;5085181;27;88536;-43
2021/12/17 03:35:35;;;;;;;;;;;1.00;87.90;;;;;;5084700;27;90233;-44
2021/12/17 03:38:00;;;;;;;;;;;1.10;87.70;;;;;;5085130;27;87127;-43
2021/12/17 03:40:27;;;;;;;;;;;1.10;87.50;;;;;;5085098;27;88851;-44
2021/12/17 03:43:01;;;;;;;;;;;1.00;87.60;;;;;;5084347;27;89694;-48
2021/12/17 03:45:26;;;;;;;;;;;1.10;87.70;;;;;;5085500;27;86318;-44
2021/12/17 03:47:52;;;;;;;;;;;1.00;87.70;;;;;;5084988;27;87996;-44
2021/12/17 03:50:18;;;;;;;;;;;1.00;87.70;;;;;;5087526;27;89638;-43
2021/12/17 03:52:43;;;;;;;;;;;1.10;87.80;;;;;;5084342;27;89225;-43
2021/12/17 03:55:09;;;;;;;;;;;1.10;87.70;;;;;;5084479;27;89567;-43
2021/12/17 03:57:36;;;;;;;;;;;1.10;87.60;;;;;;5084288;27;89405;-45
2021/12/17 04:00:03;;;;;;;;;;;1.00;87.50;;;;;;5084359;27;88952;-45
2021/12/17 04:02:29;;;;;;;;;;;1.00;87.60;;;;;;5084362;27;89953;-44
2021/12/17 04:04:55;;;;;;;;;;;1.00;87.80;;;;;;5084480;27;87049;-44
2021/12/17 04:07:20;;;;;;;;;;;1.10;87.70;;;;;;5084499;27;88954;-45
2021/12/17 04:09:46;;;;;;;;;;;1.00;87.70;;;;;;5084656;27;89130;-43
2021/12/17 04:12:15;;;;;;;;;;;1.00;87.70;;;;;;5087271;27;87135;-43
2021/12/17 04:14:44;;;;;;;;;;;1.00;87.80;;;;;;5084072;27;89430;-44
2021/12/17 04:17:11;;;;;;;;;;;1.00;87.70;;;;;;5083946;27;88036;-43
2021/12/17 04:19:36;;;;;;;;;;;1.00;87.80;;;;;;5084439;27;89649;-44
2021/12/17 04:22:03;;;;;;;;;;;1.00;87.70;;;;;;5084086;27;88514;-44
2021/12/17 04:24:28;;;;;;;;;;;1.00;87.70;;;;;;5084234;27;87111;-44
2021/12/17 04:26:54;;;;;;;;;;;1.00;87.70;;;;;;5084027;27;88182;-44
2021/12/17 04:29:21;;;;;;;;;;;1.00;87.80;;;;;;5083886;27;89533;-43
2021/12/17 04:31:54;;;;;;;;;;;1.00;87.90;;;;;;5084191;27;87136;-43
2021/12/17 04:34:20;;;;;;;;;;;1.00;87.90;;;;;;5087287;27;89101;-43
2021/12/17 04:36:48;;;;;;;;;;;1.00;87.60;;;;;;5084026;27;86974;-43
2021/12/17 04:39:16;;;;;;;;;;;1.00;87.90;;;;;;5084012;27;88997;-43
2021/12/17 04:41:49;;;;;;;;;;;1.00;88.00;;;;;;5085701;27;90302;-43
2021/12/17 04:44:21;;;;;;;;;;;1.00;87.70;;;;;;5087827;27;88055;-43
2021/12/17 04:57:42;;;;;;;;;;;1.00;88.00;;;;;;5089617;27;87151;-43
2021/12/17 05:00:11;;;;;;;;;;;1.10;88.10;;;;;;5087712;27;89022;-45
2021/12/17 05:02:43;;;;;;;;;;;1.10;87.90;;;;;;5087049;27;89388;-43
2021/12/17 05:05:10;;;;;;;;;;;1.00;87.80;;;;;;5087881;27;87013;-44
2021/12/17 05:07:37;;;;;;;;;;;1.10;87.80;;;;;;5086941;27;88607;-43
2021/12/17 05:20:55;;;;;;;;;;;1.10;87.70;;;;;;5089921;27;87044;-43
2021/12/17 05:23:25;;;;;;;;;;;1.10;87.80;;;;;;5086609;27;89384;-45
2021/12/17 05:25:53;;;;;;;;;;;1.00;87.90;;;;;;5087660;27;86411;-44
2021/12/17 05:28:19;;;;;;;;;;;1.00;87.70;;;;;;5087185;27;88136;-44
2021/12/17 05:30:46;;;;;;;;;;;1.10;88.00;;;;;;5086765;27;89040;-43
2021/12/17 05:33:13;;;;;;;;;;;1.00;87.90;;;;;;5086529;27;87782;-43
2021/12/17 05:35:38;;;;;;;;;;;1.00;87.80;;;;;;5087093;27;89730;-44
2021/12/17 05:38:04;;;;;;;;;;;1.10;87.80;;;;;;5086733;27;89224;-44
2021/12/17 05:40:30;;;;;;;;;;;1.00;88.00;;;;;;5086950;27;87067;-43
2021/12/17 05:42:59;;;;;;;;;;;1.10;87.80;;;;;;5089537;27;88810;-44
2021/12/17 05:45:35;;;;;;;;;;;1.10;87.90;;;;;;5086822;27;86920;-46
2021/12/17 05:48:02;;;;;;;;;;;1.10;87.80;;;;;;5086969;27;89083;-44
2021/12/17 05:50:28;;;;;;;;;;;1.10;87.70;;;;;;5086869;27;88708;-45
2021/12/17 05:52:53;;;;;;;;;;;1.10;88.00;;;;;;5086693;27;87113;-46
2021/12/17 05:55:19;;;;;;;;;;;1.00;87.90;;;;;;5086712;27;89081;-45
2021/12/17 05:57:44;;;;;;;;;;;1.10;88.00;;;;;;5085692;27;90684;-43
2021/12/17 06:00:11;;;;;;;;;;;1.10;87.80;;;;;;5086169;27;87169;-43
2021/12/17 06:02:37;;;;;;;;;;;1.10;87.90;;;;;;5089230;27;88751;-46
2021/12/17 06:05:02;;;;;;;;;;;1.10;88.00;;;;;;5086538;27;86976;-43
2021/12/17 06:07:29;;;;;;;;;;;1.10;87.80;;;;;;5086436;27;88698;-43
2021/12/17 06:09:57;;;;;;;;;;;1.10;88.10;;;;;;5086074;27;89212;-44
2021/12/17 06:12:23;;;;;;;;;;;1.10;87.80;;;;;;5086568;27;87168;-43
2021/12/17 06:14:48;;;;;;;;;;;1.00;87.80;;;;;;5086978;27;88962;-44
2021/12/17 06:17:14;;;;;;;;;;;1.10;88.00;;;;;;5085973;27;88428;-44
2021/12/17 06:19:39;;;;;;;;;;;1.00;88.00;;;;;;5086077;27;87164;-44
2021/12/17 06:22:05;;;;;;;;;;;1.10;88.00;;;;;;5085618;27;89058;-45
2021/12/17 06:24:30;;;;;;;;;;;1.10;88.00;;;;;;5088856;27;89134;-44
2021/12/17 06:26:56;;;;;;;;;;;1.10;87.90;;;;;;5086272;27;89130;-43
2021/12/17 06:29:21;;;;;;;;;;;1.10;87.90;;;;;;5085702;27;89376;-44
2021/12/17 06:31:47;;;;;;;;;;;1.10;87.80;;;;;;5085991;27;87108;-44
2021/12/17 06:34:12;;;;;;;;;;;1.10;87.90;;;;;;5086139;27;89189;-43
2021/12/17 06:36:38;;;;;;;;;;;1.10;87.90;;;;;;5085750;27;89518;-45
2021/12/17 06:39:03;;;;;;;;;;;1.10;88.00;;;;;;5086277;27;86516;-43
2021/12/17 06:41:29;;;;;;;;;;;1.10;87.80;;;;;;5085985;27;88422;-43
2021/12/17 06:43:57;;;;;;;;;;;1.00;88.10;;;;;;5085538;27;89607;-43
2021/12/17 06:46:35;;;;;;;;;;;1.10;88.00;;;;;;5069960;27;88115;-44
2021/12/17 06:49:21;;;;;;;;;;;1.10;87.80;;;;;;5085422;27;90083;-44
2021/12/17 06:54:47;;;;;;;;;;;1.10;87.90;;;;;;5086338;27;87386;-45
2021/12/17 07:10:49;;;;;;;;;;;1.10;87.80;;;;;;5086665;27;86915;-44
2021/12/17 07:34:41;;;;;;;;;;;1.10;87.80;;;;;;5088022;27;87395;-43
2021/12/17 07:39:33;;;;;;;;;;;1.10;87.90;;;;;;5084307;27;88972;-44
2021/12/17 07:41:58;;;;;;;;;;;1.10;87.90;;;;;;5085168;27;87029;-44
2021/12/17 07:44:24;;;;;;;;;;;1.10;88.30;;;;;;5085045;27;87348;-44
2021/12/17 07:46:50;;;;;;;;;;;1.20;87.90;;;;;;5084676;27;89566;-45
2021/12/17 07:49:15;;;;;;;;;;;1.10;87.80;;;;;;5084923;27;87106;-45
2021/12/17 07:51:41;;;;;;;;;;;1.10;88.00;;;;;;5084559;27;89317;-42
2021/12/17 07:54:06;;;;;;;;;;;1.10;87.80;;;;;;5084525;27;89938;-43
2021/12/17 07:56:37;;;;;;;;;;;1.10;88.00;;;;;;5088141;27;86219;-43
2021/12/17 07:59:12;;;;;;;;;;;1.10;87.70;;;;;;5084266;27;89488;-43
2021/12/17 08:01:39;;;;;;;;;;;1.20;87.80;;;;;;5085137;27;86722;-43
2021/12/17 08:04:05;;;;;;;;;;;1.10;87.90;;;;;;5083910;27;88883;-45
2021/12/17 08:06:31;;;;;;;;;;;1.20;87.80;;;;;;5083966;27;89819;-43
2021/12/17 08:08:56;;;;;;;;;;;1.20;88.40;;;;;;5084461;27;87107;-43
2021/12/17 08:11:22;;;;;;;;;;;1.20;88.00;;;;;;5084505;27;88906;-43
2021/12/17 08:13:53;;;;;;;;;;;1.20;87.70;;;;;;5084093;27;89480;-43
2021/12/17 08:31:58;;;;;;;;;;;1.10;88.20;;;;;;5084281;27;88044;-44
2021/12/17 08:34:24;;;;;;;;;;;1.10;88.00;;;;;;5084014;27;90277;-44
2021/12/17 08:36:49;;;;;;;;;;;1.20;88.00;;;;;;5084137;27;87027;-44
2021/12/17 08:39:15;;;;;;;;;;;1.20;87.80;;;;;;5086669;27;88047;-45
2021/12/17 08:41:41;;;;;;;;;;;1.20;87.80;;;;;;5084057;27;86889;-43
2021/12/17 08:44:07;;;;;;;;;;;1.20;88.10;;;;;;5084174;27;87910;-43
2021/12/17 08:46:33;;;;;;;;;;;1.20;87.90;;;;;;5084235;27;88873;-43
2021/12/17 08:48:59;;;;;;;;;;;1.10;88.10;;;;;;5084057;27;87090;-44
2021/12/17 08:51:25;;;;;;;;;;;1.10;87.80;;;;;;5084225;27;88485;-43
2021/12/17 08:53:51;;;;;;;;;;;1.10;88.10;;;;;;5082802;27;90169;-43
2021/12/17 08:56:22;;;;;;;;;;;1.10;88.40;;;;;;5083975;27;87078;-43
2021/12/17 08:58:51;;;;;;;;;;;1.10;87.90;;;;;;5083769;27;88602;-43
2021/12/17 09:01:16;;;;;;;;;;;1.10;87.90;;;;;;5086375;27;89367;-43
2021/12/17 09:03:42;;;;;;;;;;;1.10;88.00;;;;;;5084028;27;88008;-43
2021/12/17 09:06:07;;;;;;;;;;;1.10;87.80;;;;;;5083602;27;89633;-43
2021/12/17 09:08:33;;;;;;;;;;;1.20;87.90;;;;;;5083785;27;86842;-43
2021/12/17 09:10:59;;;;;;;;;;;1.20;87.90;;;;;;5084291;27;87693;-43
2021/12/17 09:13:25;;;;;;;;;;;1.20;88.00;;;;;;5083375;27;89342;-43
2021/12/17 09:15:52;;;;;;;;;;;1.20;87.90;;;;;;5083757;27;87229;-43
2021/12/17 09:18:18;;;;;;;;;;;1.20;87.90;;;;;;5083417;27;87799;-43
2021/12/17 09:20:45;;;;;;;;;;;1.20;87.90;;;;;;5083406;27;89957;-43
2021/12/17 09:23:10;;;;;;;;;;;1.20;88.20;;;;;;5086736;27;87027;-43
2021/12/17 09:25:36;;;;;;;;;;;1.20;88.00;;;;;;5083152;27;88650;-44
2021/12/17 09:28:02;;;;;;;;;;;1.10;87.80;;;;;;5086593;27;87175;-43
2021/12/17 09:30:28;;;;;;;;;;;1.20;88.00;;;;;;5087044;27;89329;-43
2021/12/17 09:32:53;;;;;;;;;;;1.20;88.40;;;;;;5086775;27;89830;-43
2021/12/17 09:35:21;;;;;;;;;;;1.20;88.10;;;;;;5087540;27;86446;-43
2021/12/17 09:37:46;;;;;;;;;;;1.20;88.30;;;;;;5087249;27;88265;-44
2021/12/17 09:40:13;;;;;;;;;;;1.20;88.00;;;;;;5086527;27;89993;-43
2021/12/17 09:42:40;;;;;;;;;;;1.20;88.10;;;;;;5086186;27;87879;-43
2021/12/17 09:45:06;;;;;;;;;;;1.20;88.00;;;;;;5089395;27;89949;-43
2021/12/17 09:47:32;;;;;;;;;;;1.20;87.70;;;;;;5087042;27;86965;-43
2021/12/17 09:49:57;;;;;;;;;;;1.20;87.70;;;;;;5086736;27;89248;-43
2021/12/17 09:52:24;;;;;;;;;;;1.20;88.00;;;;;;5086356;27;89570;-43
2021/12/17 09:54:49;;;;;;;;;;;1.20;87.80;;;;;;5086754;27;87148;-43
2021/12/17 09:57:17;;;;;;;;;;;1.20;87.80;;;;;;5086674;27;88808;-43
2021/12/17 09:59:43;;;;;;;;;;;1.20;88.00;;;;;;5086493;27;88829;-43
2021/12/17 10:02:08;;;;;;;;;;;1.10;87.80;;;;;;5086512;27;87081;-43
2021/12/17 10:04:34;;;;;;;;;;;1.20;88.10;;;;;;5070584;27;90424;-43
2021/12/17 10:07:20;;;;;;;;;;;1.20;88.40;;;;;;5086030;27;87919;-43
2021/12/17 10:09:55;;;;;;;;;;;1.20;87.90;;;;;;5086460;27;88343;-42
2021/12/17 10:12:31;;;;;;;;;;;1.20;87.80;;;;;;5086193;27;89400;-43
2021/12/17 10:15:14;;;;;;;;;;;1.20;88.20;;;;;;5086531;27;87118;-43
2021/12/17 10:17:52;;;;;;;;;;;1.20;88.00;;;;;;5086411;27;89185;-43
2021/12/17 10:20:17;;;;;;;;;;;1.20;88.00;;;;;;5085659;27;89407;-43
2021/12/17 10:22:44;;;;;;;;;;;1.20;87.80;;;;;;5086419;27;86766;-43
2021/12/17 10:25:10;;;;;;;;;;;1.20;87.90;;;;;;5086643;27;89561;-43
2021/12/17 10:27:37;;;;;;;;;;;1.20;88.10;;;;;;5088729;27;89728;-43
2021/12/17 10:30:20;;;;;;;;;;;1.20;88.00;;;;;;5086174;27;88881;-42
2021/12/17 10:32:47;;;;;;;;;;;1.10;88.10;;;;;;5084842;27;90053;-43
2021/12/17 10:35:14;;;;;;;;;;;1.20;88.00;;;;;;5085988;27;87128;-42
2021/12/17 10:37:41;;;;;;;;;;;1.20;88.00;;;;;;5085574;27;88988;-43
2021/12/17 10:40:35;;;;;;;;;;;1.20;88.10;;;;;;5085211;27;89709;-43
2021/12/17 10:43:59;;;;;;;;;;;1.20;88.00;;;;;;5046806;27;86866;-43
2021/12/17 10:46:21;;;;;;;;;;;1.20;88.10;;;;;;5077407;27;88132;-43
2021/12/17 10:48:57;;;;;;;;;;;1.20;88.00;;;;;;5085822;27;89551;-43
2021/12/17 10:54:08;;;;;;;;;;;1.20;87.70;;;;;;5083667;27;87237;-43
2021/12/17 10:56:38;;;;;;;;;;;1.20;87.90;;;;;;5085824;27;87136;-43
2021/12/17 10:59:05;;;;;;;;;;;1.20;87.80;;;;;;5084897;27;89660;-43
2021/12/17 11:01:33;;;;;;;;;;;1.20;88.00;;;;;;5085254;27;89391;-43
2021/12/17 11:04:06;;;;;;;;;;;1.20;87.80;;;;;;5085231;27;88036;-43
2021/12/17 11:06:45;;;;;;;;;;;1.20;88.00;;;;;;5085486;27;88809;-43
2021/12/17 11:09:11;;;;;;;;;;;1.20;87.80;;;;;;5085436;27;88956;-43
2021/12/17 11:11:42;;;;;;;;;;;1.20;87.90;;;;;;5085460;27;87097;-43
2021/12/17 11:14:07;;;;;;;;;;;1.20;88.20;;;;;;5088055;27;88850;-43
2021/12/17 11:16:35;;;;;;;;;;;1.20;88.10;;;;;;5085717;27;86244;-43
2021/12/17 11:19:01;;;;;;;;;;;1.20;88.00;;;;;;5085839;27;88218;-43
2021/12/17 11:21:27;;;;;;;;;;;1.20;88.20;;;;;;5085165;27;89411;-43
2021/12/17 11:23:53;;;;;;;;;;;1.20;88.10;;;;;;5084603;27;88021;-43
2021/12/17 11:26:19;;;;;;;;;;;1.20;88.10;;;;;;5085232;27;89944;-43
2021/12/17 11:28:46;;;;;;;;;;;1.20;88.10;;;;;;5084838;27;89728;-43
2021/12/17 11:31:12;;;;;;;;;;;1.20;88.10;;;;;;5085089;27;87058;-43
2021/12/17 11:33:37;;;;;;;;;;;1.20;87.90;;;;;;5085145;27;89072;-44
2021/12/17 11:36:03;;;;;;;;;;;1.30;88.10;;;;;;5087823;27;89397;-43
2021/12/17 11:39:07;;;;;;;;;;;1.20;88.10;;;;;;5084893;27;90087;-43
2021/12/17 11:41:44;;;;;;;;;;;1.20;88.00;;;;;;4981691;28;89233;-43
2021/12/17 11:44:12;;;;;;;;;;;1.30;88.30;;;;;;4981803;28;87145;-43
2021/12/17 11:46:38;;;;;;;;;;;1.30;88.30;;;;;;5021773;27;90918;-43
2021/12/17 11:49:13;;;;;;;;;;;1.30;88.40;;;;;;5083850;27;90546;-43
2021/12/17 11:51:39;;;;;;;;;;;1.30;88.20;;;;;;5085098;27;86876;-43
2021/12/17 11:54:07;;;;;;;;;;;1.30;88.30;;;;;;5085375;27;86942;-43
2021/12/17 11:56:33;;;;;;;;;;;1.20;88.60;;;;;;5066278;27;91161;-43
2021/12/17 11:58:59;;;;;;;;;;;1.20;88.40;;;;;;5087241;27;87162;-44
2021/12/17 12:01:44;;;;;;;;;;;1.30;88.20;;;;;;5084754;27;87909;-42
2021/12/17 12:04:43;;;;;;;;;;;1.30;88.30;;;;;;5065845;27;87197;-44
2021/12/17 12:07:14;;;;;;;;;;;1.30;88.30;;;;;;5028523;27;89257;-43
2021/12/17 12:09:59;;;;;;;;;;;1.30;88.40;;;;;;5084329;27;88306;-43
2021/12/17 12:12:50;;;;;;;;;;;1.30;88.40;;;;;;5084618;27;87129;-43
2021/12/17 12:15:23;;;;;;;;;;;1.30;88.50;;;;;;5083809;27;87875;-43
2021/12/17 12:17:57;;;;;;;;;;;1.30;88.50;;;;;;5084149;27;89060;-45
2021/12/17 12:20:47;;;;;;;;;;;1.30;88.10;;;;;;5087391;27;87132;-45
2021/12/17 12:23:21;;;;;;;;;;;1.30;88.10;;;;;;5070258;27;89602;-43
2021/12/17 12:26:14;;;;;;;;;;;1.30;88.30;;;;;;5084289;27;86894;-45
2021/12/17 12:28:46;;;;;;;;;;;1.30;88.10;;;;;;5071273;27;89007;-43
2021/12/17 12:31:12;;;;;;;;;;;1.30;88.30;;;;;;5084016;27;89612;-43
2021/12/17 12:34:11;;;;;;;;;;;1.30;88.30;;;;;;5084829;27;86271;-43
2021/12/17 12:36:53;;;;;;;;;;;1.30;88.40;;;;;;5027956;27;88048;-44
2021/12/17 12:39:22;;;;;;;;;;;1.30;88.50;;;;;;5083878;27;88404;-43
2021/12/17 12:42:06;;;;;;;;;;;1.30;88.50;;;;;;5083828;27;88092;-45
2021/12/17 12:44:44;;;;;;;;;;;1.30;88.60;;;;;;5086460;27;89924;-43
2021/12/17 12:47:30;;;;;;;;;;;1.30;88.40;;;;;;5084023;27;87143;-43
2021/12/17 12:50:02;;;;;;;;;;;1.30;88.70;;;;;;5084234;27;88814;-43
2021/12/17 12:52:33;;;;;;;;;;;1.30;88.20;;;;;;5083626;27;89392;-43
2021/12/17 12:55:01;;;;;;;;;;;1.30;88.70;;;;;;5083814;27;87096;-43
2021/12/17 12:57:26;;;;;;;;;;;1.30;88.30;;;;;;5084107;27;88792;-43
2021/12/17 12:59:53;;;;;;;;;;;1.30;88.10;;;;;;5083982;27;88603;-44
2021/12/17 13:02:18;;;;;;;;;;;1.30;88.40;;;;;;5086100;27;87125;-43
2021/12/17 13:04:45;;;;;;;;;;;1.40;88.50;;;;;;5087556;27;89053;-45
2021/12/17 13:07:13;;;;;;;;;;;1.40;88.30;;;;;;5089572;27;90320;-43
2021/12/17 13:09:44;;;;;;;;;;;1.40;88.20;;;;;;5087291;27;89734;-46
2021/12/17 13:12:10;;;;;;;;;;;1.40;88.80;;;;;;5087117;27;89671;-44
2021/12/17 13:14:45;;;;;;;;;;;1.40;88.20;;;;;;5087502;27;87123;-44
2021/12/17 13:17:51;;;;;;;;;;;1.30;88.40;;;;;;5087591;27;88916;-43
2021/12/17 13:22:59;;;;;;;;;;;1.40;88.90;;;;;;5087543;27;86968;-43
2021/12/17 13:25:25;;;;;;;;;;;1.40;88.30;;;;;;5087801;27;88891;-43
2021/12/17 13:27:54;;;;;;;;;;;1.40;88.10;;;;;;5087072;27;88608;-43
2021/12/17 13:30:26;;;;;;;;;;;1.40;88.30;;;;;;5090096;27;87114;-43
2021/12/17 13:32:52;;;;;;;;;;;1.40;88.30;;;;;;5086007;27;90427;-43
2021/12/17 13:35:18;;;;;;;;;;;1.40;88.50;;;;;;5086985;27;87136;-42
2021/12/17 13:37:43;;;;;;;;;;;1.40;88.40;;;;;;5087062;27;88859;-43
2021/12/17 13:40:10;;;;;;;;;;;1.40;88.20;;;;;;5086982;27;88032;-43
2021/12/17 13:42:38;;;;;;;;;;;1.40;88.30;;;;;;5086798;27;88142;-43
2021/12/17 13:45:07;;;;;;;;;;;1.40;88.30;;;;;;5086577;27;89355;-43
2021/12/17 13:47:33;;;;;;;;;;;1.40;88.30;;;;;;5086505;27;89250;-43
2021/12/17 13:50:08;;;;;;;;;;;1.40;88.30;;;;;;5087340;27;86507;-43
2021/12/17 13:52:35;;;;;;;;;;;1.40;88.30;;;;;;5089350;27;88208;-42
2021/12/17 13:55:02;;;;;;;;;;;1.40;88.20;;;;;;5086744;27;86892;-43
2021/12/17 13:57:29;;;;;;;;;;;1.40;88.50;;;;;;5085909;27;89548;-43
2021/12/17 14:00:08;;;;;;;;;;;1.40;88.30;;;;;;5085546;27;89776;-43
2021/12/17 14:02:35;;;;;;;;;;;1.40;88.10;;;;;;5086533;27;87137;-43
2021/12/17 14:05:03;;;;;;;;;;;1.40;88.50;;;;;;5086706;27;89185;-44
2021/12/17 14:07:30;;;;;;;;;;;1.40;88.60;;;;;;5086296;27;88568;-42
2021/12/17 14:09:59;;;;;;;;;;;1.40;88.60;;;;;;5086492;27;87142;-43
2021/12/17 14:12:29;;;;;;;;;;;1.40;88.20;;;;;;5085881;27;89060;-43
2021/12/17 14:15:06;;;;;;;;;;;1.50;88.20;;;;;;5088772;27;88967;-43
2021/12/17 14:17:35;;;;;;;;;;;1.40;88.40;;;;;;5086439;27;88614;-43
2021/12/17 14:20:04;;;;;;;;;;;1.40;88.60;;;;;;5085864;27;89724;-43
2021/12/17 14:22:34;;;;;;;;;;;1.50;88.20;;;;;;5085740;27;88088;-43
2021/12/17 14:24:59;;;;;;;;;;;1.50;88.30;;;;;;5086092;27;90509;-43
2021/12/17 14:27:44;;;;;;;;;;;1.50;88.50;;;;;;5086093;27;88592;-43
2021/12/17 14:30:10;;;;;;;;;;;1.50;88.50;;;;;;5086175;27;87148;-43
2021/12/17 14:32:53;;;;;;;;;;;1.50;88.40;;;;;;5086211;27;88612;-43
2021/12/17 14:35:37;;;;;;;;;;;1.50;88.40;;;;;;5088577;27;89789;-43
2021/12/17 14:38:03;;;;;;;;;;;1.50;88.30;;;;;;5086159;27;89303;-43
2021/12/17 14:43:25;;;;;;;;;;;1.50;88.20;;;;;;5085637;27;87032;-43
2021/12/17 14:49:05;;;;;;;;;;;1.40;88.40;;;;;;5085147;27;89027;-43
2021/12/17 14:57:22;;;;;;;;;;;1.50;88.70;;;;;;5086121;27;87071;-43
2021/12/17 14:57:52;;;;;;;;;;;1.40;88.30;;;;;;5085366;27;88737;-43
2021/12/17 15:00:28;;;;;;;;;;;1.40;88.60;;;;;;5087367;27;88289;-43
2021/12/17 15:05:25;;;;;;;;;;;1.50;88.40;;;;;;5085661;27;87127;-44
2021/12/17 15:07:52;;;;;;;;;;;1.50;88.50;;;;;;5086300;27;88811;-42
2021/12/17 15:10:19;;;;;;;;;;;1.50;88.50;;;;;;5085198;27;89525;-43
2021/12/17 15:12:45;;;;;;;;;;;1.50;88.40;;;;;;5085423;27;86987;-43
2021/12/17 15:15:18;;;;;;;;;;;1.40;88.50;;;;;;5084804;27;88253;-43
2021/12/17 15:17:45;;;;;;;;;;;1.50;88.40;;;;;;5085020;27;89696;-42
2021/12/17 15:20:11;;;;;;;;;;;1.50;88.70;;;;;;5085379;27;87112;-43
2021/12/17 15:22:37;;;;;;;;;;;1.50;88.60;;;;;;5088020;27;89350;-43
2021/12/17 15:25:04;;;;;;;;;;;1.50;88.30;;;;;;5084743;27;87150;-43
2021/12/17 15:27:33;;;;;;;;;;;1.50;88.20;;;;;;5066707;27;91275;-44
2021/12/17 15:29:59;;;;;;;;;;;1.50;88.40;;;;;;5084907;27;89395;-43
2021/12/17 15:32:24;;;;;;;;;;;1.50;88.50;;;;;;5085702;27;86419;-42
2021/12/17 15:34:52;;;;;;;;;;;1.50;88.60;;;;;;5085080;27;88349;-44
2021/12/17 15:37:17;;;;;;;;;;;1.50;88.50;;;;;;5084854;27;89456;-43
2021/12/17 15:39:43;;;;;;;;;;;1.50;88.50;;;;;;5084545;27;88041;-43
2021/12/17 15:42:10;;;;;;;;;;;1.40;88.20;;;;;;5084941;27;90126;-43
2021/12/17 15:44:36;;;;;;;;;;;1.40;88.60;;;;;;5087569;27;88492;-45
2021/12/17 15:47:02;;;;;;;;;;;1.50;88.40;;;;;;5085287;27;87722;-43
2021/12/17 15:49:28;;;;;;;;;;;1.50;88.30;;;;;;5084543;27;90053;-44
2021/12/17 15:51:53;;;;;;;;;;;1.50;88.40;;;;;;5084933;27;87149;-43
2021/12/17 15:54:19;;;;;;;;;;;1.50;88.20;;;;;;5084913;27;88812;-43
2021/12/17 15:56:46;;;;;;;;;;;1.50;88.20;;;;;;5084717;27;89037;-43
2021/12/17 15:59:12;;;;;;;;;;;1.50;88.30;;;;;;5083780;27;90615;-43
2021/12/17 16:01:38;;;;;;;;;;;1.50;88.20;;;;;;5084714;27;88871;-43
2021/12/17 16:04:05;;;;;;;;;;;1.50;88.10;;;;;;5083647;27;90144;-43
2021/12/17 16:06:30;;;;;;;;;;;1.50;88.30;;;;;;5087527;27;87249;-43
2021/12/17 16:08:59;;;;;;;;;;;1.50;88.10;;;;;;5084331;27;89728;-43
2021/12/17 16:17:22;;;;;;;;;;;1.60;87.90;;;;;;5082795;27;86751;-43
2021/12/17 16:22:21;;;;;;;;;;;1.50;88.20;;;;;;5082890;27;86632;-43
2021/12/17 16:24:47;;;;;;;;;;;1.60;87.80;;;;;;5083881;27;89444;-43
2021/12/17 16:27:13;;;;;;;;;;;1.60;87.90;;;;;;5084431;27;87122;-43
2021/12/17 16:29:38;;;;;;;;;;;1.50;87.90;;;;;;5086300;27;88815;-44
2021/12/17 16:32:04;;;;;;;;;;;1.60;88.00;;;;;;5084225;27;87192;-43
2021/12/17 16:34:30;;;;;;;;;;;1.50;87.90;;;;;;5083985;27;88842;-43
2021/12/17 16:36:56;;;;;;;;;;;1.60;88.10;;;;;;5082879;27;89716;-42
2021/12/17 16:39:21;;;;;;;;;;;1.50;88.10;;;;;;5084148;27;87162;-43
2021/12/17 16:41:47;;;;;;;;;;;1.60;87.90;;;;;;5084275;27;87903;-43
2021/12/17 16:44:15;;;;;;;;;;;1.60;88.10;;;;;;5083710;27;89687;-43
2021/12/17 16:49:10;;;;;;;;;;;1.60;88.10;;;;;;5086862;27;86838;-45
2021/12/17 16:51:36;;;;;;;;;;;1.60;87.80;;;;;;5084320;27;87225;-43
2021/12/17 16:54:02;;;;;;;;;;;1.50;87.90;;;;;;5083647;27;88836;-47
2021/12/17 16:56:27;;;;;;;;;;;1.60;87.70;;;;;;5083752;27;89594;-43
2021/12/17 16:58:54;;;;;;;;;;;1.60;87.70;;;;;;5083811;27;86848;-44
2021/12/17 17:01:20;;;;;;;;;;;1.60;87.70;;;;;;5084020;27;88365;-46
2021/12/17 17:03:45;;;;;;;;;;;1.60;87.80;;;;;;5083546;27;89710;-45
2021/12/17 17:06:11;;;;;;;;;;;1.60;87.70;;;;;;5084057;27;87106;-43
2021/12/17 17:08:37;;;;;;;;;;;1.60;87.50;;;;;;5084058;27;88699;-43
2021/12/17 17:11:04;;;;;;;;;;;1.60;87.70;;;;;;5087030;27;87718;-42
2021/12/17 17:13:31;;;;;;;;;;;1.60;87.70;;;;;;5083854;27;88118;-43
2021/12/17 17:15:56;;;;;;;;;;;1.60;87.70;;;;;;5083351;27;88590;-44
2021/12/17 17:18:22;;;;;;;;;;;1.60;87.70;;;;;;5083231;27;88063;-44
2021/12/17 17:20:48;;;;;;;;;;;1.60;87.80;;;;;;5083727;27;89444;-46
2021/12/17 17:23:13;;;;;;;;;;;1.60;87.80;;;;;;5083211;27;89619;-44
2021/12/17 17:25:39;;;;;;;;;;;1.50;87.90;;;;;;5083577;27;87116;-43
2021/12/17 17:28:05;;;;;;;;;;;1.50;88.10;;;;;;5083652;27;88749;-44
2021/12/17 17:30:32;;;;;;;;;;;1.50;88.10;;;;;;5083197;27;89571;-44
2021/12/17 17:32:57;;;;;;;;;;;1.50;88.00;;;;;;5086315;27;87957;-43
2021/12/17 17:35:23;;;;;;;;;;;1.60;87.80;;;;;;5083561;27;89420;-43
2021/12/17 17:37:48;;;;;;;;;;;1.60;87.70;;;;;;5083434;27;87157;-43
2021/12/17 17:40:14;;;;;;;;;;;1.60;87.70;;;;;;5083458;27;88911;-44
2021/12/17 17:42:39;;;;;;;;;;;1.60;87.80;;;;;;5082350;27;90484;-45
2021/12/17 17:45:06;;;;;;;;;;;1.60;88.00;;;;;;5083066;27;87056;-43
2021/12/17 17:47:31;;;;;;;;;;;1.60;87.60;;;;;;5083877;27;88768;-43
2021/12/17 17:49:57;;;;;;;;;;;1.60;87.60;;;;;;5086356;27;89377;-46
2021/12/17 17:52:22;;;;;;;;;;;1.60;87.70;;;;;;5087069;27;87169;-43
2021/12/17 17:54:48;;;;;;;;;;;1.50;87.80;;;;;;5089332;27;88778;-46
2021/12/17 17:57:14;;;;;;;;;;;1.50;87.90;;;;;;5086670;27;87133;-44
2021/12/17 17:59:46;;;;;;;;;;;1.50;88.00;;;;;;5086962;27;87680;-43
2021/12/17 18:02:15;;;;;;;;;;;1.60;87.90;;;;;;5086341;27;88922;-46